TimeEDT,TemperatureF,Dew PointF,Humidity,Sea Level PressureIn,VisibilityMPH,Wind Direction,Wind SpeedMPH,Gust SpeedMPH,PrecipitationIn,Events,Conditions,WindDirDegrees,DateUTC
12:53 AM,66.0,63.0,90,29.89,10.0,Calm,Calm,-,N/A,,Overcast,0,2013-09-26 04:53:00
1:53 AM,66.0,63.0,90,29.89,10.0,Calm,Calm,-,N/A,,Overcast,0,2013-09-26 05:53:00
2:53 AM,66.0,63.0,90,29.89,10.0,Calm,Calm,-,N/A,,Overcast,0,2013-09-26 06:53:00
3:37 AM,66.2,62.6,88,29.90,10.0,Calm,Calm,-,N/A,,Overcast,0,2013-09-26 07:37:00
3:44 AM,66.2,62.6,88,29.90,10.0,Calm,Calm,-,N/A,,Overcast,0,2013-09-26 07:44:00
3:53 AM,66.9,63.0,87,29.89,10.0,Calm,Calm,-,N/A,,Overcast,0,2013-09-26 07:53:00
4:22 AM,66.2,62.6,88,29.90,10.0,Calm,Calm,-,N/A,,Overcast,0,2013-09-26 08:22:00
4:53 AM,66.0,63.0,90,29.89,10.0,Calm,Calm,-,N/A,,Overcast,0,2013-09-26 08:53:00
5:43 AM,66.2,62.6,88,29.91,10.0,SE,3.5,-,N/A,,Mostly Cloudy,130,2013-09-26 09:43:00
5:53 AM,64.9,63.0,93,29.90,10.0,Calm,Calm,-,N/A,,Mostly Cloudy,0,2013-09-26 09:53:00
6:14 AM,66.2,62.6,88,29.92,10.0,Calm,Calm,-,N/A,,Mostly Cloudy,0,2013-09-26 10:14:00
6:53 AM,66.0,63.0,90,29.92,10.0,Calm,Calm,-,N/A,,Mostly Cloudy,0,2013-09-26 10:53:00
7:50 AM,66.2,62.6,88,29.96,10.0,Calm,Calm,-,N/A,,Mostly Cloudy,0,2013-09-26 11:50:00
7:53 AM,66.0,63.0,90,29.94,10.0,Calm,Calm,-,N/A,,Mostly Cloudy,0,2013-09-26 11:53:00
8:21 AM,66.2,62.6,88,29.97,10.0,Calm,Calm,-,N/A,Fog,Patches of Fog,0,2013-09-26 12:21:00
8:53 AM,66.9,63.0,87,29.97,10.0,Calm,Calm,-,N/A,Fog,Patches of Fog,0,2013-09-26 12:53:00
9:53 AM,68.0,63.0,84,29.99,10.0,SW,3.5,-,N/A,,Mostly Cloudy,220,2013-09-26 13:53:00
10:39 AM,69.8,60.8,73,30.00,10.0,SSW,4.6,-,N/A,,Mostly Cloudy,210,2013-09-26 14:39:00
10:53 AM,70.0,61.0,73,29.99,10.0,Calm,Calm,-,N/A,,Mostly Cloudy,0,2013-09-26 14:53:00
11:12 AM,71.6,62.6,73,30.01,10.0,Variable,3.5,-,N/A,,Mostly Cloudy,0,2013-09-26 15:12:00
11:53 AM,71.1,62.1,73,29.99,10.0,ESE,3.5,-,N/A,,Mostly Cloudy,110,2013-09-26 15:53:00
12:10 PM,73.4,62.6,69,30.01,10.0,Calm,Calm,-,N/A,,Mostly Cloudy,0,2013-09-26 16:10:00
12:53 PM,78.1,63.0,60,29.99,10.0,NE,6.9,-,N/A,,Mostly Cloudy,50,2013-09-26 16:53:00
1:53 PM,77.0,62.1,60,29.97,10.0,Calm,Calm,-,N/A,,Scattered Clouds,0,2013-09-26 17:53:00
2:53 PM,80.1,60.1,50,29.95,10.0,North,8.1,-,N/A,,Scattered Clouds,360,2013-09-26 18:53:00
3:53 PM,81.0,60.1,49,29.94,10.0,North,6.9,-,N/A,,Scattered Clouds,10,2013-09-26 19:53:00
4:53 PM,81.0,60.1,49,29.94,10.0,NNE,9.2,-,N/A,,Scattered Clouds,30,2013-09-26 20:53:00
5:53 PM,81.0,59.0,47,29.94,10.0,NNE,8.1,-,N/A,,Partly Cloudy,20,2013-09-26 21:53:00
6:53 PM,79.0,57.9,48,29.95,10.0,North,8.1,-,N/A,,Partly Cloudy,10,2013-09-26 22:53:00
7:53 PM,72.0,61.0,68,29.96,10.0,NNW,3.5,-,N/A,,Partly Cloudy,340,2013-09-26 23:53:00
8:53 PM,70.0,63.0,78,29.98,10.0,Calm,Calm,-,N/A,,Clear,0,2013-09-27 00:53:00
9:53 PM,66.9,63.0,87,30.00,10.0,Calm,Calm,-,N/A,,Clear,0,2013-09-27 01:53:00
10:53 PM,66.0,62.1,87,30.01,10.0,Calm,Calm,-,N/A,,Clear,0,2013-09-27 02:53:00
11:53 PM,64.9,62.1,90,30.02,10.0,Calm,Calm,-,N/A,,Clear,0,2013-09-27 03:53:00